createdAt,value
2018-12-01T00:01:48.420Z,62.84
2018-12-01T00:04:26.598Z,62.88
2018-12-01T00:08:31.208Z,62.58
2018-12-01T00:10:59.948Z,62.29
2018-12-01T00:13:31.347Z,62.85
2018-12-01T00:15:59.807Z,62.25
2018-12-01T00:18:30.808Z,62.63
2018-12-01T00:21:01.111Z,62.19
2018-12-01T00:23:35.078Z,62.57
2018-12-01T00:26:07.907Z,62.86
2018-12-01T00:28:50.511Z,63.45
2018-12-01T00:31:27.809Z,63.65
2018-12-01T00:34:07.565Z,63.95
2018-12-01T00:36:41.872Z,64.92
2018-12-01T00:39:21.795Z,64.22
2018-12-01T00:41:56.921Z,63.57
2018-12-01T00:44:31.210Z,63.87
2018-12-01T00:47:02.207Z,63.25
2018-12-01T00:49:32.522Z,63.07
2018-12-01T00:52:05.213Z,63.64
2018-12-01T00:54:34.531Z,63.06
2018-12-01T00:57:03.820Z,63.03
2018-12-01T00:59:32.811Z,63.23
2018-12-01T01:02:02.666Z,62.75
2018-12-01T01:04:31.392Z,62.83
2018-12-01T01:07:01.031Z,63.06
2018-12-01T01:09:29.803Z,63.55
2018-12-01T01:12:01.166Z,64.21
2018-12-01T01:14:31.216Z,63.61
2018-12-01T01:17:03.186Z,63.37
2018-12-01T01:19:31.716Z,63.13
2018-12-01T01:22:01.265Z,63.04
2018-12-01T01:24:31.162Z,63.56
2018-12-01T01:27:00.397Z,63.00
2018-12-01T01:29:29.955Z,63.30
2018-12-01T01:32:03.161Z,63.64
2018-12-01T01:34:32.410Z,63.85
2018-12-01T01:37:02.944Z,64.23
2018-12-01T01:39:31.722Z,64.92
2018-12-01T01:42:01.223Z,65.00
2018-12-01T01:44:31.636Z,64.41
2018-12-01T01:47:12.478Z,65.48
2018-12-01T01:49:41.406Z,65.66
2018-12-01T01:52:10.382Z,65.90
2018-12-01T01:54:38.861Z,65.02
2018-12-01T01:57:07.543Z,65.28
2018-12-01T01:59:36.156Z,66.03
2018-12-01T02:02:04.686Z,65.99
2018-12-01T02:04:33.745Z,66.08
2018-12-01T02:07:03.117Z,65.77
2018-12-01T02:09:31.699Z,66.39
2018-12-01T02:12:00.317Z,66.29
2018-12-01T02:14:29.228Z,66.09
2018-12-01T02:16:58.814Z,67.24
2018-12-01T02:19:27.395Z,67.07
2018-12-01T02:21:56.023Z,68.25
2018-12-01T02:24:27.418Z,67.49
2018-12-01T02:26:55.727Z,67.09
2018-12-01T02:29:23.981Z,67.06
2018-12-01T02:31:54.064Z,66.94
2018-12-01T02:34:23.189Z,67.46
2018-12-01T02:36:51.718Z,67.15
2018-12-01T02:39:20.272Z,67.57
2018-12-01T02:41:49.503Z,67.27
2018-12-01T02:44:23.353Z,66.13
2018-12-01T02:47:00.053Z,66.20
2018-12-01T02:49:29.387Z,66.44
2018-12-01T02:51:57.601Z,66.83
2018-12-01T02:54:25.897Z,66.21
2018-12-01T02:56:55.737Z,66.42
2018-12-01T02:59:25.464Z,66.69
2018-12-01T03:01:55.474Z,67.06
2018-12-01T03:04:25.468Z,67.45
2018-12-01T03:06:54.394Z,67.67
2018-12-01T03:09:23.851Z,66.71
2018-12-01T03:11:52.312Z,66.66
2018-12-01T03:14:27.361Z,67.23
2018-12-01T03:17:00.047Z,66.58
2018-12-01T03:19:29.223Z,66.96
2018-12-01T03:21:57.787Z,67.51
2018-12-01T03:24:29.347Z,67.04
2018-12-01T03:27:01.590Z,67.17
2018-12-01T03:29:30.235Z,68.24
2018-12-01T03:31:58.775Z,67.51
2018-12-01T03:34:27.841Z,66.86
2018-12-01T03:36:57.243Z,67.67
2018-12-01T03:39:26.217Z,67.21
2018-12-01T03:41:54.780Z,66.51
2018-12-01T03:44:24.041Z,66.08
2018-12-01T03:46:52.688Z,65.40
2018-12-01T03:49:21.871Z,66.30
2018-12-01T03:51:51.766Z,65.51
2018-12-01T03:54:22.644Z,65.11
2018-12-01T03:56:51.390Z,65.46
2018-12-01T03:59:21.300Z,65.23
2018-12-01T04:01:50.947Z,65.74
2018-12-01T04:05:14.401Z,66.59
2018-12-01T04:07:44.237Z,66.86
2018-12-01T04:10:12.718Z,65.73
2018-12-01T04:12:41.894Z,66.39
2018-12-01T04:15:13.583Z,65.79
2018-12-01T04:17:43.654Z,65.91
2018-12-01T04:20:54.768Z,66.01
2018-12-01T04:23:23.486Z,65.69
2018-12-01T04:25:52.725Z,65.78
2018-12-01T04:28:21.407Z,66.04
2018-12-01T04:30:50.031Z,67.16
2018-12-01T04:33:18.342Z,67.07
2018-12-01T04:35:47.034Z,66.59
2018-12-01T04:38:15.445Z,66.25
2018-12-01T04:40:43.770Z,67.42
2018-12-01T04:43:14.606Z,66.37
2018-12-01T04:45:43.612Z,66.86
2018-12-01T04:48:12.605Z,66.65
2018-12-01T04:50:41.882Z,66.11
2018-12-01T04:53:10.543Z,66.06
2018-12-01T04:55:39.304Z,65.86
2018-12-01T04:58:08.283Z,66.07
2018-12-01T05:00:36.886Z,66.95
2018-12-01T05:03:05.154Z,66.84
2018-12-01T05:05:33.744Z,67.19
2018-12-01T05:08:02.409Z,67.25
2018-12-01T05:10:31.110Z,67.40
2018-12-01T05:13:00.146Z,66.92
2018-12-01T05:15:29.598Z,67.34
2018-12-01T05:17:58.069Z,68.32
2018-12-01T05:20:26.743Z,68.98
2018-12-01T05:22:55.892Z,68.01
2018-12-01T05:25:24.444Z,68.25
2018-12-01T05:27:53.524Z,68.25
2018-12-01T05:30:37.388Z,67.14
2018-12-01T05:33:06.064Z,67.14
2018-12-01T05:35:34.538Z,68.05
2018-12-01T05:38:02.913Z,68.47
2018-12-01T05:40:31.685Z,68.14
2018-12-01T05:43:00.162Z,68.80
2018-12-01T05:45:56.501Z,68.60
2018-12-01T05:48:25.060Z,68.03
2018-12-01T05:50:53.658Z,67.39
2018-12-01T05:53:23.003Z,67.21
2018-12-01T05:55:51.229Z,66.54
2018-12-01T05:58:19.660Z,66.00
2018-12-01T06:03:27.223Z,65.82
2018-12-01T06:08:34.674Z,65.12
2018-12-01T06:11:03.874Z,64.92
2018-12-01T06:13:32.502Z,64.92
2018-12-01T06:16:02.736Z,64.66
2018-12-01T06:18:37.371Z,65.05
2018-12-01T06:21:05.906Z,65.43
2018-12-01T06:23:36.130Z,64.98
2018-12-01T06:26:06.357Z,65.33
2018-12-01T06:28:35.498Z,64.32
2018-12-01T06:31:07.272Z,64.17
2018-12-01T06:33:36.156Z,64.05
2018-12-01T06:36:05.507Z,64.26
2018-12-01T06:38:35.393Z,64.24
2018-12-01T06:41:04.221Z,64.33
2018-12-01T06:43:37.565Z,64.27
2018-12-01T06:46:11.857Z,64.02
2018-12-01T06:48:41.715Z,63.98
2018-12-01T06:53:28.803Z,64.47
2018-12-01T06:55:58.022Z,64.20
2018-12-01T06:58:27.219Z,64.83
2018-12-01T07:00:57.252Z,64.08
2018-12-01T07:03:27.951Z,64.90
2018-12-01T07:05:58.283Z,64.43
2018-12-01T07:08:28.712Z,64.05
2018-12-01T07:11:02.414Z,64.41
2018-12-01T07:13:37.155Z,63.80
2018-12-01T07:16:06.962Z,64.28
2018-12-01T07:18:46.344Z,64.06
2018-12-01T07:21:24.999Z,63.19
2018-12-01T07:23:53.636Z,63.28
2018-12-01T07:26:25.265Z,63.09
2018-12-01T07:28:54.298Z,63.98
2018-12-01T07:31:25.464Z,63.30
2018-12-01T07:33:54.544Z,63.61
2018-12-01T07:36:24.727Z,63.98
2018-12-01T07:38:56.100Z,63.40
2018-12-01T07:41:27.204Z,63.78
2018-12-01T07:43:56.968Z,63.64
2018-12-01T07:46:33.931Z,63.78
2018-12-01T07:49:05.229Z,63.16
2018-12-01T07:51:35.070Z,63.14
2018-12-01T07:54:08.234Z,63.13
2018-12-01T07:59:29.853Z,63.77
2018-12-01T08:02:00.380Z,63.34
2018-12-01T08:04:29.841Z,63.49
2018-12-01T08:07:02.110Z,63.48
2018-12-01T08:09:37.800Z,63.00
2018-12-01T08:12:10.215Z,63.20
2018-12-01T08:14:39.691Z,62.96
2018-12-01T08:17:11.664Z,62.48
2018-12-01T08:19:43.638Z,62.61
2018-12-01T08:22:15.916Z,62.24
2018-12-01T08:24:45.818Z,61.96
2018-12-01T08:27:15.980Z,62.65
2018-12-01T08:29:45.967Z,62.11
2018-12-01T08:32:17.088Z,62.17
2018-12-01T08:34:51.546Z,64.11
2018-12-01T08:37:21.395Z,65.09
2018-12-01T08:39:55.835Z,64.10
2018-12-01T08:42:29.508Z,65.14
2018-12-01T08:45:13.041Z,64.61
2018-12-01T08:47:50.834Z,64.27
2018-12-01T08:50:26.721Z,64.26
2018-12-01T08:53:08.736Z,64.51
2018-12-01T08:55:42.322Z,64.04
2018-12-01T08:58:21.587Z,64.30
2018-12-01T09:00:54.317Z,65.20
2018-12-01T09:03:47.678Z,64.71
2018-12-01T09:06:53.278Z,64.04
2018-12-01T09:09:45.719Z,64.03
2018-12-01T09:12:38.036Z,64.46
2018-12-01T09:15:20.566Z,63.92
2018-12-01T09:17:59.572Z,63.90
2018-12-01T09:20:42.013Z,64.72
2018-12-01T09:25:58.466Z,64.26
2018-12-01T09:28:41.613Z,64.94
2018-12-01T09:31:27.000Z,64.71
2018-12-01T09:34:13.681Z,63.77
2018-12-01T09:36:58.793Z,62.79
2018-12-01T09:39:31.131Z,62.93
2018-12-01T09:43:59.424Z,62.78
2018-12-01T09:46:29.563Z,63.00
2018-12-01T09:49:10.074Z,63.46
2018-12-01T09:51:51.814Z,63.38
2018-12-01T09:54:31.253Z,61.37
2018-12-01T09:57:07.397Z,60.90
2018-12-01T09:59:39.081Z,57.59
2018-12-01T10:02:09.857Z,56.08
2018-12-01T10:04:40.486Z,53.58
2018-12-01T10:07:11.412Z,52.48
2018-12-01T10:09:41.506Z,52.38
2018-12-01T10:12:11.273Z,54.28
2018-12-01T10:14:40.102Z,53.87
2018-12-01T10:17:12.747Z,54.14
2018-12-01T10:19:44.733Z,54.90
2018-12-01T10:22:17.272Z,54.86
2018-12-01T10:24:46.950Z,55.29
2018-12-01T10:27:16.132Z,57.16
2018-12-01T10:29:54.899Z,56.18
2018-12-01T10:32:25.013Z,56.10
2018-12-01T10:34:59.638Z,57.90
2018-12-01T10:37:36.545Z,58.14
2018-12-01T10:40:21.173Z,57.03
2018-12-01T10:42:59.391Z,57.09
2018-12-01T10:45:29.047Z,57.54
2018-12-01T10:48:08.010Z,58.12
2018-12-01T10:52:58.667Z,58.80
2018-12-01T10:55:45.422Z,58.72
2018-12-01T11:01:03.396Z,57.57
2018-12-01T11:03:38.768Z,57.53
2018-12-01T11:06:12.541Z,56.91
2018-12-01T11:08:47.118Z,57.50
2018-12-01T11:11:18.755Z,57.06
2018-12-01T11:13:47.551Z,57.07
2018-12-01T11:16:22.464Z,55.93
2018-12-01T11:18:51.761Z,55.57
2018-12-01T11:21:27.699Z,56.10
2018-12-01T11:23:56.945Z,57.03
2018-12-01T11:26:27.301Z,57.05
2018-12-01T11:28:57.927Z,57.74
2018-12-01T11:31:29.154Z,58.22
2018-12-01T11:33:59.963Z,58.45
2018-12-01T11:36:34.133Z,58.98
2018-12-01T11:39:05.218Z,58.43
2018-12-01T11:41:33.939Z,57.99
2018-12-01T11:44:08.696Z,57.22
2018-12-01T11:46:39.934Z,57.70
2018-12-01T11:49:15.206Z,57.12
2018-12-01T11:51:46.424Z,56.27
2018-12-01T11:54:17.090Z,56.98
2018-12-01T11:56:53.650Z,56.77
2018-12-01T11:59:24.214Z,55.30
2018-12-01T12:01:54.328Z,55.42
2018-12-01T12:04:28.325Z,55.65
2018-12-01T12:07:12.616Z,55.75
2018-12-01T12:09:46.642Z,56.07
2018-12-01T12:12:15.995Z,57.64
2018-12-01T12:14:46.435Z,56.29
2018-12-01T12:17:23.295Z,56.07
2018-12-01T12:19:56.606Z,55.57
2018-12-01T12:22:40.759Z,56.24
2018-12-01T12:25:19.759Z,55.19
2018-12-01T12:27:57.113Z,55.93
2018-12-01T12:30:33.447Z,56.31
2018-12-01T12:33:08.078Z,57.12
2018-12-01T12:35:39.449Z,55.52
2018-12-01T12:42:52.579Z,56.86
2018-12-01T12:45:36.722Z,56.32
2018-12-01T12:48:14.695Z,55.12
2018-12-01T12:50:45.528Z,55.30
2018-12-01T12:53:17.106Z,55.28
2018-12-01T12:55:49.771Z,55.75
2018-12-01T12:58:18.456Z,55.63
2018-12-01T13:00:50.810Z,55.96
2018-12-01T13:03:21.721Z,54.95
2018-12-01T13:06:00.641Z,55.22
2018-12-01T13:08:36.215Z,55.29
2018-12-01T13:11:07.272Z,54.59
2018-12-01T13:13:41.393Z,55.16
2018-12-01T13:16:14.993Z,54.88
2018-12-01T13:18:44.659Z,54.34
2018-12-01T13:24:00.737Z,53.88
2018-12-01T13:26:34.651Z,53.17
2018-12-01T13:29:08.952Z,53.25
2018-12-01T13:31:47.961Z,52.82
2018-12-01T13:34:27.356Z,52.17
2018-12-01T13:36:58.320Z,51.77
2018-12-01T13:39:29.872Z,52.94
2018-12-01T13:42:04.840Z,52.80
2018-12-01T13:44:36.589Z,52.68
2018-12-01T13:47:07.213Z,52.93
2018-12-01T13:49:40.390Z,52.61
2018-12-01T13:52:18.051Z,52.84
2018-12-01T13:54:52.017Z,53.89
2018-12-01T13:57:28.671Z,54.49
2018-12-01T14:02:54.735Z,54.67
2018-12-01T14:05:25.506Z,54.90
2018-12-01T14:07:59.895Z,54.77
2018-12-01T14:13:13.648Z,54.37
2018-12-01T14:15:48.014Z,54.57
2018-12-01T14:18:16.832Z,54.17
2018-12-01T14:20:46.600Z,54.54
2018-12-01T14:23:16.496Z,54.70
2018-12-01T14:25:47.014Z,54.08
2018-12-01T14:28:16.435Z,53.64
2018-12-01T14:30:46.272Z,54.50
2018-12-01T14:33:16.426Z,54.02
2018-12-01T14:35:44.768Z,53.84
2018-12-01T14:38:17.128Z,53.20
2018-12-01T14:40:49.834Z,53.45
2018-12-01T14:43:18.184Z,54.32
2018-12-01T14:45:51.637Z,54.68
2018-12-01T14:48:28.742Z,54.65
2018-12-01T14:51:06.129Z,55.08
2018-12-01T14:53:36.701Z,55.08
2018-12-01T14:56:16.959Z,55.02
2018-12-01T14:58:49.984Z,56.68
2018-12-01T15:04:11.762Z,58.21
2018-12-01T15:06:41.866Z,58.61
2018-12-01T15:09:13.903Z,59.22
2018-12-01T15:11:46.521Z,59.95
2018-12-01T15:14:15.536Z,60.36
2018-12-01T15:16:44.210Z,60.47
2018-12-01T15:19:13.882Z,61.30
2018-12-01T15:23:24.475Z,62.01
2018-12-01T15:28:05.098Z,62.88
2018-12-01T15:30:35.754Z,63.47
2018-12-01T15:33:05.389Z,63.49
2018-12-01T15:35:38.382Z,63.35
2018-12-01T15:38:08.843Z,63.40
2018-12-01T15:40:37.854Z,64.44
2018-12-01T15:43:07.773Z,65.30
2018-12-01T15:45:37.078Z,66.20
2018-12-01T15:48:07.647Z,66.61
2018-12-01T15:50:37.254Z,67.51
2018-12-01T15:53:10.816Z,67.64
2018-12-01T15:55:43.223Z,67.88
2018-12-01T15:58:13.135Z,67.80
2018-12-01T16:00:43.931Z,68.86
2018-12-01T16:03:17.627Z,69.22
2018-12-01T16:05:47.766Z,67.91
2018-12-01T16:08:16.205Z,67.01
2018-12-01T16:10:46.437Z,66.35
2018-12-01T16:13:19.256Z,66.55
2018-12-01T16:15:50.300Z,65.70
2018-12-01T16:18:20.861Z,66.76
2018-12-01T16:20:51.255Z,66.66
2018-12-01T16:23:20.176Z,65.79
2018-12-01T16:31:20.704Z,67.78
2018-12-01T16:33:59.065Z,67.41
2018-12-01T16:39:38.867Z,67.01
2018-12-01T16:49:05.311Z,66.07
2018-12-01T16:51:35.426Z,66.50
2018-12-01T16:54:12.150Z,66.21
2018-12-01T16:57:21.663Z,65.53
2018-12-01T16:59:56.985Z,65.69
2018-12-01T17:02:41.074Z,65.04
2018-12-01T17:05:18.227Z,65.03
2018-12-01T17:16:09.973Z,65.50
2018-12-01T17:18:45.745Z,64.97
2018-12-01T17:21:27.072Z,64.98
2018-12-01T17:24:13.077Z,65.64
2018-12-01T17:26:47.855Z,65.05
2018-12-01T17:29:29.110Z,65.58
2018-12-01T17:32:11.712Z,65.08
2018-12-01T17:34:56.578Z,65.04
2018-12-01T17:37:47.186Z,65.68
2018-12-01T17:40:24.564Z,65.05
2018-12-01T17:43:00.351Z,65.93
2018-12-01T17:45:39.202Z,65.96
2018-12-01T17:48:20.471Z,66.11
2018-12-01T17:51:14.932Z,65.60
2018-12-01T17:54:05.627Z,66.71
2018-12-01T17:56:49.623Z,66.20
2018-12-01T17:59:36.330Z,66.24
2018-12-01T18:02:13.059Z,66.09
2018-12-01T18:04:45.700Z,67.31
2018-12-01T18:07:23.675Z,67.87
2018-12-01T18:10:00.367Z,67.59
2018-12-01T18:12:39.331Z,68.41
2018-12-01T18:15:21.112Z,69.20
2018-12-01T18:17:52.861Z,68.51
2018-12-01T18:23:30.267Z,68.34
2018-12-01T18:26:08.861Z,68.25
2018-12-01T18:28:47.577Z,67.50
2018-12-01T18:31:23.344Z,68.49
2018-12-01T18:34:04.096Z,69.04
2018-12-01T18:36:36.244Z,68.39
2018-12-01T18:39:22.638Z,68.16
2018-12-01T18:41:59.252Z,68.26
2018-12-01T18:44:48.652Z,68.95
2018-12-01T18:47:33.650Z,68.84
2018-12-01T18:50:07.134Z,69.54
2018-12-01T19:00:54.366Z,71.06
2018-12-01T19:03:42.540Z,70.17
2018-12-01T19:06:17.012Z,71.69
2018-12-01T19:08:51.596Z,71.32
2018-12-01T19:11:26.958Z,71.23
2018-12-01T19:14:17.436Z,70.39
2018-12-01T19:16:51.413Z,70.94
2018-12-01T19:19:23.443Z,70.63
2018-12-01T19:24:41.228Z,69.64
2018-12-01T19:27:14.615Z,69.90
2018-12-01T19:29:48.365Z,69.65
2018-12-01T19:32:25.396Z,69.43
2018-12-01T19:34:57.894Z,69.32
2018-12-01T19:37:30.703Z,69.22
2018-12-01T19:42:13.438Z,69.44
2018-12-01T19:44:43.347Z,68.68
2018-12-01T19:47:15.591Z,68.26
2018-12-01T19:49:46.019Z,68.14
2018-12-01T19:52:17.331Z,68.47
2018-12-01T19:54:56.157Z,68.14
2018-12-01T19:57:30.121Z,68.00
2018-12-01T20:00:05.965Z,68.14
2018-12-01T20:02:37.136Z,67.97
2018-12-01T20:05:07.381Z,67.71
2018-12-01T20:07:41.290Z,67.76
2018-12-01T20:10:15.691Z,67.23
2018-12-01T20:12:58.387Z,66.48
2018-12-01T20:19:14.178Z,67.09
2018-12-01T20:21:46.503Z,66.86
2018-12-01T20:24:22.068Z,67.00
2018-12-01T20:26:59.059Z,66.82
2018-12-01T20:29:37.681Z,67.87
2018-12-01T20:32:16.432Z,67.44
2018-12-01T20:34:51.470Z,68.03
2018-12-01T20:37:36.423Z,67.72
2018-12-01T20:40:20.581Z,67.91
2018-12-01T20:42:56.974Z,67.72
2018-12-01T20:45:39.258Z,66.98
2018-12-01T20:48:11.108Z,66.98
2018-12-01T20:50:43.964Z,66.35
2018-12-01T20:53:15.279Z,66.38
2018-12-01T20:55:54.621Z,66.36
2018-12-01T20:58:32.557Z,65.68
2018-12-01T21:01:07.703Z,65.62
2018-12-01T21:03:41.492Z,65.43
2018-12-01T21:06:21.271Z,64.40
2018-12-01T21:08:59.033Z,65.12
2018-12-01T21:14:17.436Z,64.13
2018-12-01T21:16:52.288Z,63.89
2018-12-01T21:19:27.644Z,63.99
2018-12-01T21:22:10.815Z,63.21
2018-12-01T21:24:42.387Z,64.11
2018-12-01T21:27:13.968Z,63.57
2018-12-01T21:29:49.613Z,63.21
2018-12-01T21:32:28.030Z,62.87
2018-12-01T21:35:08.123Z,62.30
2018-12-01T21:37:39.539Z,63.20
2018-12-01T21:40:12.095Z,61.94
2018-12-01T21:43:51.099Z,63.15
2018-12-01T21:46:21.987Z,63.35
2018-12-01T21:49:07.419Z,63.62
2018-12-01T21:51:46.682Z,63.50
2018-12-01T21:54:19.309Z,63.27
2018-12-01T21:57:10.734Z,63.53
2018-12-01T22:02:36.713Z,63.37
2018-12-01T22:05:16.737Z,62.74
2018-12-01T22:08:00.560Z,63.17
2018-12-01T22:10:31.319Z,63.15
2018-12-01T22:13:01.524Z,63.16
2018-12-01T22:15:33.379Z,63.88
2018-12-01T22:18:04.332Z,63.38
2018-12-01T22:20:46.128Z,62.50
2018-12-01T22:23:24.101Z,61.62
2018-12-01T22:25:57.416Z,61.62
2018-12-01T22:28:35.229Z,61.94
2018-12-01T22:31:01.129Z,61.54
2018-12-01T22:33:33.730Z,61.71
2018-12-01T22:36:04.207Z,61.70
2018-12-01T22:38:35.268Z,61.02
2018-12-01T22:41:10.674Z,62.51
2018-12-01T22:43:44.735Z,61.29
2018-12-01T22:46:19.081Z,62.81
2018-12-01T22:52:13.484Z,61.29
2018-12-01T22:55:05.430Z,61.87
2018-12-01T22:57:48.624Z,62.02
2018-12-01T23:00:44.863Z,62.05
2018-12-01T23:03:30.979Z,63.50
2018-12-01T23:09:15.292Z,63.98
2018-12-01T23:11:48.292Z,63.27
2018-12-01T23:16:55.665Z,62.50
2018-12-01T23:19:29.562Z,62.63
2018-12-01T23:21:59.084Z,62.13
2018-12-01T23:24:42.487Z,62.17
2018-12-01T23:27:13.563Z,61.77
2018-12-01T23:30:01.334Z,63.53
2018-12-01T23:32:36.312Z,63.05
2018-12-01T23:35:08.193Z,62.40
2018-12-01T23:37:38.958Z,62.04
2018-12-01T23:40:12.604Z,62.29
2018-12-01T23:42:55.298Z,64.04
2018-12-01T23:45:26.421Z,63.81
2018-12-01T23:47:57.220Z,62.54
2018-12-01T23:50:29.815Z,62.70
2018-12-01T23:53:03.312Z,62.43
2018-12-01T23:55:34.991Z,63.76
2018-12-01T23:58:06.806Z,62.38
